Amenia, New York
Current Conditions -  °F | °C
As of 3:53 AM on Sunday 21 Dec 2014 (Local Time) from KPOU Reporting Station
Overcast Overcast  
Wind Chill: 29°   Ceiling: 1700
Heat Index: 29°   Visibility: 10mi
Dew Point: 24°   Wind: 3mph
Humidity: 82%   Direction: 350°N
Pressure: 30.29"   Gusts: NA
Location:  41.85°N, 73.55°W
Report Text: KPOU 210853Z AUTO 35003KT 10SM FEW012 OVC017 M02/M04 A3029 RMK AO2 SNE35 SLP255 P0000 60000 T10171044 51000 TSNO
Loading
Personal Weather Stations






























Interactive Weather Map New forecast layout! Learn more

10-Day Weather Forecast

Advertisements
Track Severe Weather on mobile